Time;durP1;ratioP1;P1;durP2;ratioP2;P2;SDS_P1;SDS_P2;PMS_P1;PMS_P2;Temp;Humidity;BMP_temperature;BMP_pressure;BME280_temperature;BME280_humidity;BME280_pressure;Samples;Min_cycle;Max_cycle;Signal;HPM_P1;HPM_P2
2023/07/12 00:01:44;;;;;;;5.65;1.90;;;;;;;;;;4845363;29;20048;-73
2023/07/12 00:04:14;;;;;;;8.65;2.47;;;;;;;;;;4847365;29;20093;-73
2023/07/12 00:07:02;;;;;;;4.88;1.92;;;;;;;;;;4850530;29;20055;-74
2023/07/12 00:09:29;;;;;;;4.00;1.90;;;;;;;;;;4855876;29;20057;-74
2023/07/12 00:12:03;;;;;;;8.45;1.95;;;;;;;;;;4855810;29;20237;-73
2023/07/12 00:14:37;;;;;;;7.63;2.47;;;;;;;;;;4865084;29;20055;-74
2023/07/12 00:17:08;;;;;;;6.30;2.20;;;;;;;;;;4931797;28;20070;-73
2023/07/12 00:19:39;;;;;;;3.25;2.20;;;;;;;;;;4989320;28;20451;-74
2023/07/12 00:22:12;;;;;;;6.65;2.40;;;;;;;;;;5008287;28;20906;-74
2023/07/12 00:24:49;;;;;;;3.95;2.22;;;;;;;;;;4990823;28;20636;-74
2023/07/12 00:27:23;;;;;;;7.65;2.67;;;;;;;;;;4992748;28;20038;-74
2023/07/12 00:29:49;;;;;;;8.43;2.42;;;;;;;;;;4987612;28;20495;-71
2023/07/12 00:32:17;;;;;;;3.70;2.30;;;;;;;;;;4982843;28;20080;-73
2023/07/12 00:34:58;;;;;;;4.50;2.03;;;;;;;;;;5006556;28;20081;-71
2023/07/12 00:37:31;;;;;;;4.40;2.00;;;;;;;;;;4990438;28;20045;-73
2023/07/12 00:40:03;;;;;;;4.35;2.30;;;;;;;;;;4992254;28;20145;-73
2023/07/12 00:42:45;;;;;;;3.10;2.10;;;;;;;;;;4959494;28;20153;-72
2023/07/12 00:45:22;;;;;;;6.78;2.33;;;;;;;;;;4957969;28;20105;-72
2023/07/12 00:47:56;;;;;;;3.25;2.22;;;;;;;;;;4926808;28;20161;-73
2023/07/12 00:50:28;;;;;;;4.85;2.25;;;;;;;;;;4925173;28;20043;-73
2023/07/12 00:56:12;;;;;;;4.10;2.30;;;;;;;;;;4928570;28;20094;-74
2023/07/12 00:59:12;;;;;;;7.67;2.60;;;;;;;;;;4910246;29;20510;-72
2023/07/12 01:01:51;;;;;;;3.55;2.10;;;;;;;;;;4945844;28;20287;-74
2023/07/12 01:04:46;;;;;;;4.43;2.30;;;;;;;;;;4925309;28;20050;-71
2023/07/12 01:07:20;;;;;;;3.78;2.38;;;;;;;;;;4932306;28;20082;-72
2023/07/12 01:10:04;;;;;;;5.05;2.50;;;;;;;;;;4923493;28;20082;-72
2023/07/12 01:12:38;;;;;;;4.15;2.22;;;;;;;;;;4959333;28;20038;-72
2023/07/12 01:15:37;;;;;;;2.95;2.20;;;;;;;;;;4948699;28;20470;-73
2023/07/12 01:18:19;;;;;;;2.95;2.42;;;;;;;;;;4937932;28;20038;-72
2023/07/12 01:20:52;;;;;;;10.02;2.33;;;;;;;;;;4978819;28;20059;-73
2023/07/12 01:23:26;;;;;;;7.00;2.28;;;;;;;;;;4995130;28;20478;-75
2023/07/12 01:26:22;;;;;;;4.68;2.25;;;;;;;;;;4988094;28;20048;-73
2023/07/12 01:28:58;;;;;;;4.15;1.63;;;;;;;;;;4973928;28;20073;-73
2023/07/12 01:31:27;;;;;;;4.15;2.20;;;;;;;;;;4976075;28;20046;-72
2023/07/12 01:33:54;;;;;;;3.05;2.22;;;;;;;;;;4960783;28;20046;-73
2023/07/12 01:36:21;;;;;;;8.45;3.05;;;;;;;;;;4961820;28;20046;-74
2023/07/12 01:38:52;;;;;;;2.72;2.50;;;;;;;;;;4959949;28;20659;-72
2023/07/12 01:41:27;;;;;;;5.25;2.13;;;;;;;;;;4971644;28;20144;-74
2023/07/12 01:43:57;;;;;;;5.82;2.60;;;;;;;;;;4969868;28;20053;-75
2023/07/12 01:46:33;;;;;;;4.63;2.45;;;;;;;;;;4970061;28;20133;-70
2023/07/12 01:49:10;;;;;;;8.57;2.75;;;;;;;;;;5008947;28;20079;-71
2023/07/12 01:51:36;;;;;;;3.88;2.65;;;;;;;;;;5019240;28;20581;-69
2023/07/12 01:54:02;;;;;;;4.30;2.65;;;;;;;;;;5032018;28;20246;-69
2023/07/12 01:56:27;;;;;;;8.88;2.97;;;;;;;;;;5033996;28;20135;-72
2023/07/12 01:58:53;;;;;;;5.53;3.03;;;;;;;;;;5021210;28;20041;-70
2023/07/12 02:01:19;;;;;;;6.35;3.00;;;;;;;;;;5003441;28;20112;-71
2023/07/12 02:03:44;;;;;;;5.65;2.60;;;;;;;;;;5022854;28;20076;-71
2023/07/12 02:06:10;;;;;;;9.73;2.53;;;;;;;;;;5021393;28;20468;-74
2023/07/12 02:08:35;;;;;;;5.03;2.70;;;;;;;;;;5021050;28;20485;-70
2023/07/12 02:11:00;;;;;;;6.75;2.58;;;;;;;;;;5019120;28;20045;-73
2023/07/12 02:13:26;;;;;;;6.95;2.25;;;;;;;;;;5019690;28;20048;-70
2023/07/12 02:15:51;;;;;;;6.00;2.58;;;;;;;;;;4988625;28;20036;-72
2023/07/12 02:18:18;;;;;;;5.28;2.55;;;;;;;;;;5028549;28;20119;-70
2023/07/12 02:20:43;;;;;;;3.92;2.80;;;;;;;;;;5019031;28;20045;-70
2023/07/12 02:23:09;;;;;;;4.13;2.67;;;;;;;;;;5020637;28;20092;-71
2023/07/12 02:25:35;;;;;;;6.03;2.58;;;;;;;;;;5018452;28;20053;-71
2023/07/12 02:28:04;;;;;;;9.93;2.80;;;;;;;;;;5017511;28;20084;-70
2023/07/12 02:30:30;;;;;;;4.35;2.78;;;;;;;;;;5022285;28;20033;-72
2023/07/12 02:32:56;;;;;;;6.13;3.30;;;;;;;;;;5018837;28;20056;-72
2023/07/12 02:35:27;;;;;;;4.47;2.70;;;;;;;;;;5018639;28;20055;-71
2023/07/12 02:37:53;;;;;;;4.78;3.00;;;;;;;;;;5034253;28;20046;-71
2023/07/12 02:40:19;;;;;;;3.72;2.90;;;;;;;;;;5031466;28;20401;-70
2023/07/12 02:42:44;;;;;;;4.47;3.10;;;;;;;;;;5020402;28;20055;-72
2023/07/12 02:45:10;;;;;;;5.72;3.30;;;;;;;;;;5005214;28;20040;-70
2023/07/12 02:47:35;;;;;;;5.32;3.50;;;;;;;;;;5025602;28;20048;-73
2023/07/12 02:50:01;;;;;;;3.55;2.88;;;;;;;;;;5023331;28;20119;-70
2023/07/12 02:52:26;;;;;;;3.70;2.70;;;;;;;;;;5020673;28;20567;-70
2023/07/12 02:54:52;;;;;;;5.85;3.00;;;;;;;;;;5029208;28;20049;-70
2023/07/12 02:57:17;;;;;;;9.30;3.28;;;;;;;;;;5018169;28;20042;-70
2023/07/12 02:59:43;;;;;;;11.05;3.63;;;;;;;;;;5030226;28;20785;-70
2023/07/12 03:02:11;;;;;;;10.65;3.10;;;;;;;;;;5025322;28;20061;-70
2023/07/12 03:04:37;;;;;;;10.07;3.15;;;;;;;;;;5023805;28;20053;-70
2023/07/12 03:07:03;;;;;;;5.95;3.53;;;;;;;;;;5023823;28;20103;-69
2023/07/12 03:09:28;;;;;;;6.65;3.25;;;;;;;;;;5022881;28;20053;-69
2023/07/12 03:11:54;;;;;;;7.25;3.40;;;;;;;;;;5021097;28;20111;-70
2023/07/12 03:14:21;;;;;;;6.50;2.88;;;;;;;;;;5028685;28;20486;-72
2023/07/12 03:16:46;;;;;;;4.47;2.60;;;;;;;;;;5025684;28;20593;-71
2023/07/12 03:19:13;;;;;;;5.53;2.75;;;;;;;;;;5013802;28;20057;-70
2023/07/12 03:21:39;;;;;;;2.80;2.22;;;;;;;;;;5022183;28;20049;-70
2023/07/12 03:24:04;;;;;;;7.07;3.22;;;;;;;;;;5026515;28;20056;-68
2023/07/12 03:26:30;;;;;;;5.40;3.13;;;;;;;;;;5031221;28;20045;-69
2023/07/12 03:28:56;;;;;;;3.67;2.40;;;;;;;;;;5025940;28;20096;-70
2023/07/12 03:31:22;;;;;;;5.50;2.67;;;;;;;;;;5030893;28;20064;-69
2023/07/12 03:33:48;;;;;;;5.43;2.70;;;;;;;;;;5028847;28;20092;-69
2023/07/12 03:36:15;;;;;;;5.95;2.70;;;;;;;;;;5025787;28;20507;-69
2023/07/12 03:38:40;;;;;;;6.05;2.92;;;;;;;;;;5028252;28;20410;-69
2023/07/12 03:41:09;;;;;;;6.72;3.10;;;;;;;;;;5024433;28;20042;-69
2023/07/12 03:43:34;;;;;;;5.30;2.95;;;;;;;;;;5023931;28;20101;-71
2023/07/12 03:46:00;;;;;;;3.78;3.20;;;;;;;;;;5028763;28;20978;-69
2023/07/12 03:48:26;;;;;;;8.45;4.63;;;;;;;;;;5028758;28;20052;-69
2023/07/12 03:50:54;;;;;;;6.25;3.38;;;;;;;;;;5023151;28;20119;-71
2023/07/12 03:53:20;;;;;;;5.95;3.40;;;;;;;;;;5022722;28;20051;-71
2023/07/12 03:55:46;;;;;;;8.63;4.07;;;;;;;;;;5023643;28;20043;-70
2023/07/12 03:58:15;;;;;;;8.50;4.10;;;;;;;;;;5024753;28;20044;-72
2023/07/12 04:00:42;;;;;;;10.18;3.45;;;;;;;;;;5022922;28;20083;-71
2023/07/12 04:03:08;;;;;;;10.07;4.45;;;;;;;;;;5033109;28;20083;-70
2023/07/12 04:05:37;;;;;;;8.23;3.92;;;;;;;;;;5035819;28;20233;-74
2023/07/12 04:08:03;;;;;;;7.57;3.72;;;;;;;;;;5025128;28;20045;-70
2023/07/12 04:10:28;;;;;;;6.78;4.32;;;;;;;;;;5031803;28;20044;-70
2023/07/12 04:12:54;;;;;;;6.88;4.38;;;;;;;;;;5024827;28;20041;-70
2023/07/12 04:15:19;;;;;;;7.93;4.97;;;;;;;;;;5029926;28;20045;-73
2023/07/12 04:17:45;;;;;;;10.32;5.03;;;;;;;;;;5035734;28;20088;-71
2023/07/12 04:20:11;;;;;;;7.07;4.30;;;;;;;;;;5032732;28;20037;-70
2023/07/12 04:22:37;;;;;;;9.45;4.40;;;;;;;;;;5030770;28;20048;-73
2023/07/12 04:25:03;;;;;;;10.15;5.30;;;;;;;;;;5032271;28;20049;-72
2023/07/12 04:27:29;;;;;;;8.57;4.13;;;;;;;;;;5022102;28;20045;-74
2023/07/12 04:29:55;;;;;;;9.27;4.03;;;;;;;;;;5031884;28;20049;-71
2023/07/12 04:32:20;;;;;;;10.10;4.93;;;;;;;;;;5023330;28;20041;-71
2023/07/12 04:34:46;;;;;;;7.13;4.45;;;;;;;;;;5029799;28;20064;-74
2023/07/12 04:37:12;;;;;;;6.70;4.03;;;;;;;;;;5031196;28;20064;-69
2023/07/12 04:39:38;;;;;;;7.57;4.35;;;;;;;;;;5027842;28;20080;-70
2023/07/12 04:42:03;;;;;;;9.05;4.43;;;;;;;;;;5031253;28;20933;-70
2023/07/12 04:44:29;;;;;;;8.65;4.20;;;;;;;;;;5025431;28;20076;-74
2023/07/12 04:46:55;;;;;;;7.25;3.83;;;;;;;;;;5033477;28;20111;-71
2023/07/12 04:49:21;;;;;;;6.22;4.18;;;;;;;;;;5022327;28;20049;-73
2023/07/12 04:51:48;;;;;;;6.97;4.10;;;;;;;;;;5030573;28;20045;-73
2023/07/12 04:54:13;;;;;;;4.72;4.00;;;;;;;;;;5020364;28;20080;-72
2023/07/12 04:56:39;;;;;;;9.88;3.72;;;;;;;;;;5026702;28;20132;-74
2023/07/12 04:59:04;;;;;;;8.60;4.07;;;;;;;;;;5030014;28;21030;-72
2023/07/12 05:01:31;;;;;;;13.80;4.10;;;;;;;;;;5026933;28;20076;-71
2023/07/12 05:03:57;;;;;;;6.00;4.20;;;;;;;;;;5027715;28;20068;-71
2023/07/12 05:06:22;;;;;;;12.32;4.25;;;;;;;;;;5024214;28;20630;-73
2023/07/12 05:08:48;;;;;;;7.10;4.65;;;;;;;;;;5021486;28;20410;-76
2023/07/12 05:11:13;;;;;;;8.10;4.55;;;;;;;;;;5022891;28;20045;-73
2023/07/12 05:13:39;;;;;;;8.38;4.93;;;;;;;;;;5026520;28;20124;-75
2023/07/12 05:16:04;;;;;;;5.68;4.38;;;;;;;;;;5032003;28;20600;-72
2023/07/12 05:18:30;;;;;;;6.95;4.32;;;;;;;;;;5026057;28;20045;-76
2023/07/12 05:20:55;;;;;;;7.15;4.88;;;;;;;;;;5023790;28;20704;-73
2023/07/12 05:23:21;;;;;;;7.07;4.80;;;;;;;;;;5010064;28;20166;-72
2023/07/12 05:25:50;;;;;;;6.82;4.72;;;;;;;;;;5031827;28;20045;-73
2023/07/12 05:28:15;;;;;;;7.55;4.50;;;;;;;;;;5030969;28;20033;-72
2023/07/12 05:30:40;;;;;;;10.52;4.72;;;;;;;;;;5028252;28;20099;-73
2023/07/12 05:33:06;;;;;;;7.43;3.95;;;;;;;;;;5029567;28;20111;-75
2023/07/12 05:35:31;;;;;;;6.93;4.97;;;;;;;;;;5031365;28;20052;-77
2023/07/12 05:37:57;;;;;;;11.45;4.88;;;;;;;;;;5032525;28;20230;-73
2023/07/12 05:40:22;;;;;;;9.82;4.57;;;;;;;;;;5033110;28;20037;-75
2023/07/12 05:42:47;;;;;;;10.10;4.57;;;;;;;;;;5029071;28;20045;-70
2023/07/12 05:45:14;;;;;;;5.53;4.22;;;;;;;;;;5031580;28;20042;-70
2023/07/12 05:47:42;;;;;;;6.80;3.75;;;;;;;;;;5036856;28;20877;-72
2023/07/12 05:50:11;;;;;;;7.47;3.75;;;;;;;;;;5032432;28;20046;-73
2023/07/12 05:52:37;;;;;;;8.15;3.65;;;;;;;;;;5031563;28;20098;-72
2023/07/12 05:55:05;;;;;;;11.95;3.92;;;;;;;;;;5029783;28;20045;-71
2023/07/12 05:57:31;;;;;;;4.07;3.60;;;;;;;;;;5035510;28;20106;-72
2023/07/12 05:59:56;;;;;;;7.15;3.60;;;;;;;;;;5029168;28;20053;-74
2023/07/12 06:02:21;;;;;;;7.32;3.33;;;;;;;;;;5027490;28;20045;-71
2023/07/12 06:04:47;;;;;;;7.43;3.30;;;;;;;;;;5030550;28;20494;-74
2023/07/12 06:07:12;;;;;;;6.90;3.30;;;;;;;;;;5031475;28;20083;-70
2023/07/12 06:09:38;;;;;;;5.45;3.80;;;;;;;;;;5029831;28;20083;-71
2023/07/12 06:12:03;;;;;;;7.53;3.88;;;;;;;;;;5031475;28;20045;-71
2023/07/12 06:14:29;;;;;;;8.68;4.20;;;;;;;;;;5028443;28;20953;-72
2023/07/12 06:16:54;;;;;;;8.52;4.00;;;;;;;;;;5030271;28;20033;-71
2023/07/12 06:19:20;;;;;;;6.38;3.47;;;;;;;;;;5024935;28;20411;-73
2023/07/12 06:21:45;;;;;;;5.55;3.42;;;;;;;;;;5028568;28;20048;-72
2023/07/12 06:24:10;;;;;;;5.38;4.13;;;;;;;;;;5029934;28;20653;-74
2023/07/12 06:26:36;;;;;;;6.45;3.53;;;;;;;;;;5028031;28;20084;-74
2023/07/12 06:29:02;;;;;;;7.95;3.40;;;;;;;;;;5030558;28;20045;-72
2023/07/12 06:31:28;;;;;;;10.63;3.67;;;;;;;;;;5031326;28;20036;-71
2023/07/12 06:33:54;;;;;;;8.45;3.83;;;;;;;;;;5031487;28;20098;-73
2023/07/12 06:36:19;;;;;;;5.07;3.65;;;;;;;;;;5025116;28;20401;-70
2023/07/12 06:38:45;;;;;;;4.75;3.63;;;;;;;;;;5029054;28;20580;-72
2023/07/12 06:41:11;;;;;;;10.40;3.47;;;;;;;;;;5026578;28;20408;-70
2023/07/12 06:43:37;;;;;;;8.23;4.10;;;;;;;;;;5029272;28;20048;-71
2023/07/12 06:46:03;;;;;;;9.05;4.13;;;;;;;;;;5030201;28;20102;-72
2023/07/12 06:48:29;;;;;;;7.88;3.78;;;;;;;;;;5033155;28;20178;-73
2023/07/12 06:50:55;;;;;;;6.78;1.95;;;;;;;;;;5030214;28;20596;-71
2023/07/12 06:53:20;;;;;;;6.32;1.80;;;;;;;;;;5031165;28;20563;-69
2023/07/12 06:55:48;;;;;;;5.30;1.88;;;;;;;;;;5028550;28;20049;-70
2023/07/12 06:58:14;;;;;;;3.50;1.45;;;;;;;;;;5028116;28;20045;-72
2023/07/12 07:00:43;;;;;;;3.90;1.38;;;;;;;;;;5023128;28;20049;-70
2023/07/12 07:03:11;;;;;;;2.13;1.35;;;;;;;;;;5025802;28;20056;-70
2023/07/12 07:05:39;;;;;;;4.07;0.98;;;;;;;;;;5028786;28;20911;-69
2023/07/12 07:08:05;;;;;;;7.80;1.75;;;;;;;;;;5029293;28;20053;-70
2023/07/12 07:10:30;;;;;;;2.50;1.50;;;;;;;;;;5022725;28;20402;-69
2023/07/12 07:12:56;;;;;;;4.05;1.40;;;;;;;;;;5029766;28;20049;-71
2023/07/12 07:15:21;;;;;;;1.60;1.50;;;;;;;;;;5028289;28;20051;-70
2023/07/12 07:17:47;;;;;;;4.63;1.30;;;;;;;;;;5020494;28;20041;-70
2023/07/12 07:20:13;;;;;;;1.88;1.48;;;;;;;;;;5021396;28;20498;-68
2023/07/12 07:22:38;;;;;;;2.55;1.20;;;;;;;;;;5033604;28;20072;-70
2023/07/12 07:25:04;;;;;;;2.67;1.13;;;;;;;;;;5020335;28;20048;-72
2023/07/12 07:27:30;;;;;;;1.23;1.02;;;;;;;;;;5020388;28;20550;-71
2023/07/12 07:29:55;;;;;;;1.65;0.80;;;;;;;;;;5023068;28;20037;-72
2023/07/12 07:32:21;;;;;;;1.70;0.90;;;;;;;;;;5019331;28;20056;-72
2023/07/12 07:34:47;;;;;;;1.65;0.90;;;;;;;;;;5021456;28;20133;-73
2023/07/12 07:37:12;;;;;;;4.25;0.90;;;;;;;;;;5023249;28;20202;-72
2023/07/12 07:39:38;;;;;;;1.30;0.70;;;;;;;;;;5032025;28;20056;-72
2023/07/12 07:42:03;;;;;;;1.40;1.00;;;;;;;;;;5031955;28;20127;-73
2023/07/12 07:44:29;;;;;;;0.82;0.63;;;;;;;;;;5036339;28;20140;-70
2023/07/12 07:46:55;;;;;;;1.98;0.90;;;;;;;;;;5025627;28;20045;-72
2023/07/12 07:49:20;;;;;;;1.73;1.00;;;;;;;;;;5026722;28;20052;-73
2023/07/12 07:51:46;;;;;;;3.15;1.00;;;;;;;;;;5021674;28;20489;-69
2023/07/12 07:54:11;;;;;;;3.00;0.70;;;;;;;;;;5027859;28;20549;-70
2023/07/12 07:56:37;;;;;;;1.70;0.73;;;;;;;;;;5027285;28;20045;-71
2023/07/12 07:59:02;;;;;;;1.40;0.68;;;;;;;;;;5031034;28;20076;-71
2023/07/12 08:01:28;;;;;;;13.63;0.73;;;;;;;;;;5036723;28;20047;-75
2023/07/12 08:03:53;;;;;;;0.52;0.52;;;;;;;;;;5034933;28;20060;-73
2023/07/12 08:06:19;;;;;;;1.45;0.90;;;;;;;;;;5034969;28;20037;-73
2023/07/12 08:08:45;;;;;;;1.77;0.90;;;;;;;;;;5031760;28;20056;-73
2023/07/12 08:11:10;;;;;;;0.50;0.50;;;;;;;;;;5032837;28;20049;-72
2023/07/12 08:13:36;;;;;;;1.75;0.70;;;;;;;;;;5036941;28;20052;-75
2023/07/12 08:16:02;;;;;;;2.08;0.77;;;;;;;;;;5037489;28;20053;-72
2023/07/12 08:18:27;;;;;;;0.55;0.55;;;;;;;;;;5035629;28;21836;-74
2023/07/12 08:20:56;;;;;;;0.60;0.60;;;;;;;;;;5033287;28;20045;-74
2023/07/12 08:23:23;;;;;;;1.25;0.63;;;;;;;;;;5032662;28;20037;-74
2023/07/12 08:25:52;;;;;;;2.45;0.60;;;;;;;;;;5034049;28;20052;-73
2023/07/12 08:28:18;;;;;;;1.20;0.70;;;;;;;;;;5031682;28;20042;-74
2023/07/12 08:30:43;;;;;;;1.63;0.60;;;;;;;;;;5029332;28;20068;-71
2023/07/12 08:33:09;;;;;;;1.65;0.70;;;;;;;;;;5034002;28;20406;-70
2023/07/12 08:35:34;;;;;;;0.85;0.60;;;;;;;;;;5035010;28;20159;-72
2023/07/12 08:38:00;;;;;;;1.70;1.02;;;;;;;;;;5030572;28;20042;-71
2023/07/12 08:40:26;;;;;;;0.52;0.43;;;;;;;;;;5032541;28;20049;-71
2023/07/12 08:42:52;;;;;;;1.50;0.80;;;;;;;;;;5029882;28;20038;-70
2023/07/12 08:45:25;;;;;;;3.47;1.00;;;;;;;;;;5031260;28;20056;-70
2023/07/12 08:47:57;;;;;;;2.15;0.80;;;;;;;;;;5006003;28;20050;-71
2023/07/12 08:50:23;;;;;;;;;;;;;;;;;;5032401;28;20083;-70
2023/07/12 08:52:48;;;;;;;1.63;0.80;;;;;;;;;;5029541;28;19920;-69
2023/07/12 08:55:18;;;;;;;1.08;0.60;;;;;;;;;;5029465;28;20053;-73
2023/07/12 08:57:46;;;;;;;1.40;0.50;;;;;;;;;;5029008;28;20102;-70
2023/07/12 09:00:19;;;;;;;2.17;0.60;;;;;;;;;;5032164;28;20088;-70
2023/07/12 09:02:44;;;;;;;0.80;0.68;;;;;;;;;;5027876;28;20042;-71
2023/07/12 09:05:13;;;;;;;0.82;0.70;;;;;;;;;;5028882;28;20052;-71
2023/07/12 09:07:44;;;;;;;1.05;0.75;;;;;;;;;;5023581;28;20501;-71
2023/07/12 09:10:25;;;;;;;;;;;;;;;;;;5031425;28;20045;-70
2023/07/12 09:12:51;;;;;;;2.92;0.70;;;;;;;;;;5023393;28;19928;-70
2023/07/12 09:15:17;;;;;;;3.97;0.77;;;;;;;;;;5023631;28;20069;-71
2023/07/12 09:17:44;;;;;;;1.67;0.50;;;;;;;;;;5026137;28;20220;-71
2023/07/12 09:20:31;;;;;;;3.38;0.70;;;;;;;;;;5020335;28;20064;-73
2023/07/12 09:22:58;;;;;;;1.38;0.70;;;;;;;;;;5024432;28;20152;-72
2023/07/12 09:25:26;;;;;;;1.65;0.77;;;;;;;;;;5021679;28;20036;-73
2023/07/12 09:27:52;;;;;;;3.65;0.50;;;;;;;;;;5034004;28;20559;-72
2023/07/12 09:30:23;;;;;;;2.45;0.70;;;;;;;;;;5033966;28;20119;-71
2023/07/12 09:32:49;;;;;;;1.90;0.57;;;;;;;;;;5031298;28;20509;-74
2023/07/12 09:35:49;;;;;;;3.22;0.90;;;;;;;;;;5028887;28;20127;-72
2023/07/12 09:38:17;;;;;;;1.52;0.50;;;;;;;;;;5023253;28;20053;-74
2023/07/12 09:40:50;;;;;;;2.75;0.73;;;;;;;;;;5033256;28;20053;-73
2023/07/12 09:43:23;;;;;;;1.35;0.88;;;;;;;;;;5032743;28;20048;-73
2023/07/12 09:46:23;;;;;;;1.52;0.80;;;;;;;;;;5014489;28;20154;-73
2023/07/12 09:48:53;;;;;;;1.33;0.98;;;;;;;;;;5035014;28;20044;-74
2023/07/12 09:51:40;;;;;;;0.95;0.88;;;;;;;;;;5030668;28;20037;-74
2023/07/12 09:54:11;;;;;;;0.75;0.73;;;;;;;;;;5033083;28;20049;-72
2023/07/12 09:56:47;;;;;;;1.52;0.75;;;;;;;;;;5031796;28;20041;-73
2023/07/12 09:59:18;;;;;;;1.60;0.75;;;;;;;;;;5029236;28;20041;-72
2023/07/12 10:01:55;;;;;;;0.73;0.70;;;;;;;;;;5033184;28;20131;-72
2023/07/12 10:04:34;;;;;;;1.98;1.00;;;;;;;;;;5030401;28;21064;-73
2023/07/12 10:07:09;;;;;;;4.07;1.00;;;;;;;;;;5033078;28;20051;-75
2023/07/12 10:09:36;;;;;;;3.97;0.95;;;;;;;;;;5029102;28;20068;-75
2023/07/12 10:12:19;;;;;;;6.00;1.00;;;;;;;;;;5031539;28;20056;-74
2023/07/12 10:14:46;;;;;;;1.63;1.00;;;;;;;;;;5033212;28;20049;-72
2023/07/12 10:17:27;;;;;;;3.47;1.35;;;;;;;;;;5033027;28;20411;-73
2023/07/12 10:19:54;;;;;;;1.23;1.10;;;;;;;;;;4996770;28;20048;-72
2023/07/12 10:22:33;;;;;;;1.50;0.80;;;;;;;;;;5032285;28;20130;-73
2023/07/12 10:25:01;;;;;;;1.13;0.98;;;;;;;;;;5027358;28;20048;-74
2023/07/12 10:27:31;;;;;;;4.55;1.00;;;;;;;;;;5030309;28;20056;-73
2023/07/12 10:30:04;;;;;;;0.98;0.80;;;;;;;;;;5031076;28;20133;-74
2023/07/12 10:32:59;;;;;;;1.55;0.90;;;;;;;;;;5031368;28;20110;-72
2023/07/12 10:35:46;;;;;;;1.50;0.90;;;;;;;;;;5010656;28;20053;-73
2023/07/12 10:38:15;;;;;;;0.70;0.70;;;;;;;;;;5034374;28;20039;-71
2023/07/12 10:40:51;;;;;;;1.13;0.85;;;;;;;;;;5030337;28;20132;-71
2023/07/12 10:43:41;;;;;;;1.95;0.70;;;;;;;;;;5027646;28;20123;-71
2023/07/12 10:46:10;;;;;;;0.80;0.75;;;;;;;;;;5041689;28;20536;-71
2023/07/12 10:48:37;;;;;;;3.17;1.10;;;;;;;;;;5027710;28;20042;-71
2023/07/12 10:51:33;;;;;;;1.92;1.10;;;;;;;;;;5027338;28;20083;-73
2023/07/12 10:53:59;;;;;;;1.38;1.02;;;;;;;;;;5020087;28;20037;-73
2023/07/12 10:56:33;;;;;;;0.80;0.80;;;;;;;;;;5023512;28;20056;-74
2023/07/12 10:59:23;;;;;;;1.10;0.90;;;;;;;;;;5025558;28;20034;-72
2023/07/12 11:01:52;;;;;;;1.75;1.05;;;;;;;;;;5025806;28;20132;-73
2023/07/12 11:04:30;;;;;;;2.83;0.90;;;;;;;;;;5023815;28;20045;-72
2023/07/12 11:06:58;;;;;;;1.75;1.10;;;;;;;;;;5025734;28;20437;-73
2023/07/12 11:09:25;;;;;;;2.10;0.95;;;;;;;;;;5025185;28;20095;-74
2023/07/12 11:12:07;;;;;;;2.30;1.08;;;;;;;;;;5026653;28;20409;-73
2023/07/12 11:14:38;;;;;;;3.90;1.05;;;;;;;;;;5004771;28;20045;-73
2023/07/12 11:17:06;;;;;;;2.13;1.20;;;;;;;;;;5024206;28;20522;-71
2023/07/12 11:19:36;;;;;;;2.15;1.00;;;;;;;;;;5028572;28;20055;-72
2023/07/12 11:22:09;;;;;;;1.77;1.27;;;;;;;;;;5026655;28;20037;-71
2023/07/12 11:24:59;;;;;;;2.35;1.50;;;;;;;;;;5023408;28;20509;-72
2023/07/12 11:27:52;;;;;;;2.03;1.10;;;;;;;;;;5027190;28;20524;-70
2023/07/12 11:30:38;;;;;;;2.95;1.35;;;;;;;;;;5025584;28;20120;-70
2023/07/12 11:33:15;;;;;;;2.10;1.00;;;;;;;;;;5029047;28;20048;-74
2023/07/12 11:35:44;;;;;;;3.13;1.27;;;;;;;;;;5028244;28;20065;-71
2023/07/12 11:38:17;;;;;;;2.53;1.48;;;;;;;;;;5034132;28;20034;-72
2023/07/12 11:40:44;;;;;;;5.75;1.40;;;;;;;;;;5028690;28;20072;-72
2023/07/12 11:43:24;;;;;;;2.35;1.20;;;;;;;;;;5031343;28;20119;-72
2023/07/12 11:45:50;;;;;;;1.93;1.17;;;;;;;;;;5006955;28;20056;-71
2023/07/12 11:48:16;;;;;;;3.45;1.30;;;;;;;;;;5008554;28;20292;-72
2023/07/12 11:50:41;;;;;;;3.28;1.30;;;;;;;;;;5010732;28;20069;-72
2023/07/12 11:53:10;;;;;;;2.45;1.00;;;;;;;;;;5007763;28;20068;-72
2023/07/12 11:55:36;;;;;;;1.17;1.02;;;;;;;;;;5007520;28;20037;-72
2023/07/12 11:58:14;;;;;;;2.10;0.90;;;;;;;;;;5008668;28;20130;-72
2023/07/12 12:00:40;;;;;;;1.92;0.98;;;;;;;;;;5015837;28;20045;-72
2023/07/12 12:03:06;;;;;;;4.88;1.25;;;;;;;;;;5031902;28;20063;-72
2023/07/12 12:05:34;;;;;;;2.17;1.35;;;;;;;;;;5032608;28;20053;-72
2023/07/12 12:08:02;;;;;;;2.22;1.40;;;;;;;;;;5034054;28;20107;-73
2023/07/12 12:10:34;;;;;;;4.60;1.23;;;;;;;;;;5036311;28;20169;-72
2023/07/12 12:12:59;;;;;;;2.38;1.50;;;;;;;;;;5020269;28;20743;-72
2023/07/12 12:15:27;;;;;;;5.30;1.20;;;;;;;;;;5031518;28;20052;-72
2023/07/12 12:17:54;;;;;;;1.80;1.40;;;;;;;;;;5032520;28;20055;-71
2023/07/12 12:20:23;;;;;;;1.42;1.27;;;;;;;;;;5030914;28;20056;-72
2023/07/12 12:22:59;;;;;;;3.53;1.17;;;;;;;;;;5031613;28;21003;-71
2023/07/12 12:25:29;;;;;;;3.65;1.50;;;;;;;;;;5027727;28;20050;-73
2023/07/12 12:27:55;;;;;;;5.38;1.45;;;;;;;;;;4999638;28;20049;-72
2023/07/12 12:30:31;;;;;;;3.78;1.60;;;;;;;;;;4999583;28;20049;-72
2023/07/12 12:33:01;;;;;;;1.88;1.20;;;;;;;;;;4997979;28;20038;-71
2023/07/12 12:35:27;;;;;;;2.00;1.33;;;;;;;;;;4990285;28;20042;-72
2023/07/12 12:37:55;;;;;;;3.00;1.50;;;;;;;;;;4992130;28;20043;-72
2023/07/12 12:40:21;;;;;;;3.63;1.30;;;;;;;;;;5010935;28;20053;-72
2023/07/12 12:43:05;;;;;;;4.88;1.67;;;;;;;;;;4993618;28;20505;-72
2023/07/12 12:45:37;;;;;;;3.30;1.70;;;;;;;;;;4991896;28;20034;-72
2023/07/12 12:48:10;;;;;;;2.05;1.58;;;;;;;;;;4995583;28;20112;-72
2023/07/12 12:50:35;;;;;;;2.47;1.73;;;;;;;;;;5025430;28;20439;-72
2023/07/12 12:53:04;;;;;;;3.00;1.60;;;;;;;;;;4996182;28;20045;-72
2023/07/12 12:55:30;;;;;;;5.25;1.70;;;;;;;;;;5008060;28;20124;-73
2023/07/12 12:57:56;;;;;;;3.83;1.40;;;;;;;;;;4994333;28;20066;-73
2023/07/12 13:00:23;;;;;;;7.22;1.85;;;;;;;;;;4996460;28;20073;-73
2023/07/12 13:02:53;;;;;;;3.00;1.67;;;;;;;;;;4993349;28;20970;-73
2023/07/12 13:05:18;;;;;;;2.58;1.70;;;;;;;;;;4996307;28;20041;-73
2023/07/12 13:07:44;;;;;;;2.22;1.58;;;;;;;;;;4989840;28;20050;-74
2023/07/12 13:10:22;;;;;;;2.72;1.80;;;;;;;;;;4993349;28;20086;-73
2023/07/12 13:12:49;;;;;;;2.58;1.60;;;;;;;;;;5008901;28;20046;-73
2023/07/12 13:15:24;;;;;;;2.42;1.52;;;;;;;;;;4994546;28;20104;-73
2023/07/12 13:17:51;;;;;;;3.28;1.63;;;;;;;;;;5030917;28;20136;-73
2023/07/12 13:20:20;;;;;;;5.55;1.80;;;;;;;;;;5032361;28;20052;-73
2023/07/12 13:22:47;;;;;;;3.58;1.83;;;;;;;;;;5034716;28;20072;-73
2023/07/12 13:25:14;;;;;;;4.95;1.80;;;;;;;;;;5033626;28;20417;-73
2023/07/12 13:27:47;;;;;;;3.83;1.77;;;;;;;;;;5027084;28;20117;-73
2023/07/12 13:30:16;;;;;;;5.50;1.70;;;;;;;;;;5026531;28;20044;-72
2023/07/12 13:32:42;;;;;;;5.68;1.52;;;;;;;;;;5024825;28;20033;-72
2023/07/12 13:35:15;;;;;;;3.40;1.80;;;;;;;;;;5029785;28;20506;-73
2023/07/12 13:37:41;;;;;;;2.47;1.48;;;;;;;;;;5014670;28;20140;-73
2023/07/12 13:40:12;;;;;;;2.78;1.80;;;;;;;;;;5032307;28;20064;-74
2023/07/12 13:42:37;;;;;;;4.85;1.90;;;;;;;;;;5033353;28;20044;-73
2023/07/12 13:45:04;;;;;;;2.88;1.88;;;;;;;;;;5032316;28;20049;-72
2023/07/12 13:47:30;;;;;;;4.00;1.88;;;;;;;;;;5031570;28;20077;-71
2023/07/12 13:49:56;;;;;;;3.90;2.00;;;;;;;;;;5031194;28;20574;-71
2023/07/12 13:52:25;;;;;;;6.07;1.90;;;;;;;;;;5030757;28;20175;-71
2023/07/12 13:54:51;;;;;;;9.07;2.00;;;;;;;;;;5030385;28;20076;-72
2023/07/12 13:57:19;;;;;;;3.78;1.98;;;;;;;;;;5030477;28;20153;-72
2023/07/12 13:59:45;;;;;;;6.78;2.17;;;;;;;;;;5026319;28;20061;-72
2023/07/12 14:02:19;;;;;;;3.70;2.15;;;;;;;;;;5023560;28;20041;-73
2023/07/12 14:04:45;;;;;;;5.60;1.92;;;;;;;;;;5028381;28;20492;-73
2023/07/12 14:07:11;;;;;;;2.75;1.90;;;;;;;;;;5028905;28;20033;-74
2023/07/12 14:09:37;;;;;;;5.20;2.22;;;;;;;;;;5029974;28;20049;-75
2023/07/12 14:12:05;;;;;;;5.07;2.00;;;;;;;;;;5026735;28;20060;-75
2023/07/12 14:14:30;;;;;;;4.75;2.10;;;;;;;;;;5026633;28;20052;-76
2023/07/12 14:16:56;;;;;;;3.85;2.35;;;;;;;;;;5026825;28;20103;-72
2023/07/12 14:19:21;;;;;;;5.93;2.15;;;;;;;;;;5028407;28;21111;-76
2023/07/12 14:21:46;;;;;;;4.93;2.30;;;;;;;;;;5025766;28;20049;-75
2023/07/12 14:24:13;;;;;;;3.75;2.40;;;;;;;;;;5029137;28;20581;-74
2023/07/12 14:26:40;;;;;;;4.05;2.08;;;;;;;;;;5027586;28;20045;-72
2023/07/12 14:29:05;;;;;;;1.70;1.60;;;;;;;;;;5027761;28;20049;-71
2023/07/12 14:31:30;;;;;;;7.57;2.47;;;;;;;;;;5028547;28;20390;-73
2023/07/12 14:33:56;;;;;;;2.30;1.90;;;;;;;;;;5026063;28;20128;-73
2023/07/12 14:36:24;;;;;;;4.95;2.22;;;;;;;;;;5009750;28;20040;-73
2023/07/12 14:38:50;;;;;;;3.47;1.80;;;;;;;;;;5028931;28;20518;-73
2023/07/12 14:41:15;;;;;;;6.75;2.25;;;;;;;;;;5027401;28;20561;-74
2023/07/12 14:43:41;;;;;;;3.75;2.28;;;;;;;;;;5027089;28;20487;-72
2023/07/12 14:46:07;;;;;;;5.05;2.30;;;;;;;;;;5026600;28;20727;-74
2023/07/12 14:48:32;;;;;;;2.22;1.90;;;;;;;;;;5029213;28;20053;-76
2023/07/12 14:50:58;;;;;;;3.47;1.60;;;;;;;;;;5032706;28;20494;-75
2023/07/12 14:53:23;;;;;;;3.00;1.73;;;;;;;;;;5027179;28;20207;-74
2023/07/12 14:55:49;;;;;;;2.45;1.70;;;;;;;;;;5027980;28;20107;-73
2023/07/12 14:58:16;;;;;;;2.90;1.83;;;;;;;;;;5028083;28;20240;-73